createdAt,value
2022-12-25T00:01:12.510Z,31.98
2022-12-25T00:03:41.433Z,28.35
2022-12-25T00:06:10.229Z,28.23
2022-12-25T00:08:39.780Z,28.75
2022-12-25T00:11:12.295Z,23.77
2022-12-25T00:13:42.304Z,27.17
2022-12-25T00:16:17.691Z,25.80
2022-12-25T00:18:46.729Z,23.60
2022-12-25T00:21:16.325Z,22.52
2022-12-25T00:23:45.130Z,22.95
2022-12-25T00:26:18.424Z,26.55
2022-12-25T00:28:46.878Z,24.60
2022-12-25T00:31:18.138Z,22.35
2022-12-25T00:33:48.428Z,23.48
2022-12-25T00:36:19.389Z,21.98
2022-12-25T00:38:48.178Z,25.45
2022-12-25T00:41:40.160Z,24.25
2022-12-25T00:44:10.023Z,23.92
2022-12-25T00:46:38.553Z,27.40
2022-12-25T00:49:07.530Z,21.77
2022-12-25T00:51:36.326Z,21.15
2022-12-25T00:54:05.132Z,22.02
2022-12-25T00:56:33.467Z,24.52
2022-12-25T00:59:02.043Z,24.70
2022-12-25T01:01:30.648Z,20.10
2022-12-25T01:03:59.724Z,21.77
2022-12-25T01:06:28.915Z,23.23
2022-12-25T01:09:16.487Z,22.55
2022-12-25T01:11:45.127Z,22.52
2022-12-25T01:14:13.797Z,25.63
2022-12-25T01:16:42.467Z,21.02
2022-12-25T01:19:11.323Z,20.50
2022-12-25T01:21:40.191Z,21.67
2022-12-25T01:24:09.003Z,20.70
2022-12-25T01:26:37.326Z,19.30
2022-12-25T01:29:05.763Z,20.10
2022-12-25T01:31:34.285Z,23.30
2022-12-25T01:34:02.719Z,20.48
2022-12-25T01:36:31.122Z,22.35
2022-12-25T01:38:59.523Z,20.10
2022-12-25T01:41:27.954Z,22.80
2022-12-25T01:44:26.706Z,21.48
2022-12-25T01:46:55.053Z,22.67
2022-12-25T01:49:26.736Z,24.02
2022-12-25T01:52:02.579Z,24.63
2022-12-25T01:54:36.530Z,23.10
2022-12-25T01:57:10.693Z,27.13
2022-12-25T01:59:39.105Z,24.80
2022-12-25T02:02:07.604Z,24.45
2022-12-25T02:04:53.567Z,27.15
2022-12-25T02:07:25.267Z,30.52
2022-12-25T02:09:54.207Z,25.92
2022-12-25T02:12:29.087Z,23.75
2022-12-25T02:15:05.461Z,21.15
2022-12-25T02:18:00.789Z,27.85
2022-12-25T02:21:01.768Z,25.27
2022-12-25T02:23:35.811Z,26.67
2022-12-25T02:26:06.883Z,24.23
2022-12-25T02:28:45.943Z,24.33
2022-12-25T02:31:17.506Z,26.40
2022-12-25T02:34:04.831Z,24.70
2022-12-25T02:37:07.200Z,23.60
2022-12-25T02:39:59.238Z,25.77
2022-12-25T02:43:03.824Z,24.77
2022-12-25T02:46:13.422Z,25.67
2022-12-25T02:49:08.318Z,22.95
2022-12-25T02:52:00.309Z,26.95
2022-12-25T02:54:56.167Z,23.92
2022-12-25T02:57:48.967Z,26.27
2022-12-25T03:00:36.326Z,25.42
2022-12-25T03:03:27.848Z,26.80
2022-12-25T03:06:20.671Z,26.70
2022-12-25T03:08:54.721Z,24.95
2022-12-25T03:11:32.153Z,28.35
2022-12-25T03:14:22.709Z,29.45
2022-12-25T03:16:56.218Z,26.23
2022-12-25T03:19:54.206Z,29.17
2022-12-25T03:22:48.275Z,28.88
2022-12-25T03:25:53.605Z,30.02
2022-12-25T03:28:22.069Z,32.72
2022-12-25T03:31:13.043Z,29.73
2022-12-25T03:34:10.426Z,30.50
2022-12-25T03:37:19.365Z,30.40
2022-12-25T03:40:37.925Z,30.45
2022-12-25T03:43:44.480Z,29.83
2022-12-25T03:46:35.828Z,32.85
2022-12-25T03:49:34.391Z,32.05
2022-12-25T03:52:23.528Z,31.75
2022-12-25T03:55:12.645Z,33.90
2022-12-25T03:57:59.214Z,31.70
2022-12-25T04:00:45.920Z,33.53
2022-12-25T04:03:32.553Z,34.50
2022-12-25T04:06:19.526Z,33.97
2022-12-25T04:09:06.235Z,34.00
2022-12-25T04:11:57.312Z,29.95
2022-12-25T04:14:47.051Z,35.17
2022-12-25T04:17:33.606Z,38.15
2022-12-25T04:20:20.290Z,34.33
2022-12-25T04:23:06.832Z,32.00
2022-12-25T04:25:53.444Z,30.77
2022-12-25T04:28:39.973Z,36.55
2022-12-25T04:31:26.608Z,33.55
2022-12-25T04:34:13.596Z,34.00
2022-12-25T04:36:41.926Z,34.88
2022-12-25T04:39:11.835Z,41.55
2022-12-25T04:41:40.202Z,33.25
2022-12-25T04:44:08.652Z,37.72
2022-12-25T04:46:37.039Z,40.17
2022-12-25T04:49:05.485Z,41.65
2022-12-25T04:51:33.914Z,40.20
2022-12-25T04:54:02.251Z,44.20
2022-12-25T04:56:30.566Z,36.63
2022-12-25T04:58:58.889Z,41.53
2022-12-25T05:01:27.327Z,45.08
2022-12-25T05:03:56.079Z,42.15
2022-12-25T05:06:24.507Z,42.47
2022-12-25T05:08:52.811Z,39.10
2022-12-25T05:11:21.212Z,39.17
2022-12-25T05:13:49.603Z,39.83
2022-12-25T05:16:21.320Z,36.35
2022-12-25T05:18:51.950Z,36.53
2022-12-25T05:21:21.191Z,40.80
2022-12-25T05:23:54.217Z,38.50
2022-12-25T05:26:26.141Z,39.65
2022-12-25T05:28:55.071Z,37.30
2022-12-25T05:31:24.133Z,39.03
2022-12-25T05:33:53.787Z,35.25
2022-12-25T05:36:22.180Z,37.05
2022-12-25T05:38:51.585Z,40.95
2022-12-25T05:41:19.912Z,38.78
2022-12-25T05:43:48.250Z,37.40
2022-12-25T05:46:16.711Z,39.20
2022-12-25T05:48:45.548Z,37.95
2022-12-25T05:51:15.598Z,37.10
2022-12-25T05:53:44.812Z,31.92
2022-12-25T05:56:13.412Z,34.80
2022-12-25T05:58:42.522Z,36.58
2022-12-25T06:01:17.676Z,36.90
2022-12-25T06:03:46.231Z,38.75
2022-12-25T06:06:15.199Z,42.30
2022-12-25T06:08:44.021Z,41.38
2022-12-25T06:11:14.943Z,35.50
2022-12-25T06:13:43.695Z,39.00
2022-12-25T06:16:13.988Z,37.03
2022-12-25T06:18:45.158Z,35.95
2022-12-25T06:21:15.316Z,32.85
2022-12-25T06:23:44.886Z,31.70
2022-12-25T06:26:18.378Z,34.88
2022-12-25T06:28:47.531Z,32.70
2022-12-25T06:31:19.421Z,32.25
2022-12-25T06:33:48.171Z,39.40
2022-12-25T06:36:22.079Z,42.72
2022-12-25T06:38:50.546Z,36.83
2022-12-25T06:41:21.747Z,35.33
2022-12-25T06:43:51.925Z,37.30
2022-12-25T06:46:21.727Z,30.70
2022-12-25T06:48:50.505Z,36.30
2022-12-25T06:51:21.444Z,32.58
2022-12-25T06:53:51.437Z,33.25
2022-12-25T06:56:24.979Z,33.33
2022-12-25T06:58:56.627Z,33.80
2022-12-25T07:01:36.276Z,31.35
2022-12-25T07:04:08.107Z,28.80
2022-12-25T07:06:36.490Z,30.55
2022-12-25T07:09:05.124Z,25.30
2022-12-25T07:11:33.459Z,27.10
2022-12-25T07:14:01.806Z,23.17
2022-12-25T07:16:30.285Z,27.15
2022-12-25T07:19:02.125Z,25.90
2022-12-25T07:21:30.465Z,26.38
2022-12-25T07:23:58.829Z,22.15
2022-12-25T07:26:27.247Z,24.75
2022-12-25T07:28:57.350Z,21.65
2022-12-25T07:31:25.772Z,22.88
2022-12-25T07:33:56.840Z,24.08
2022-12-25T07:36:25.100Z,24.08
2022-12-25T07:38:53.569Z,23.30
2022-12-25T07:41:23.005Z,21.40
2022-12-25T07:43:53.286Z,22.02
2022-12-25T07:46:23.694Z,23.48
2022-12-25T07:48:52.715Z,25.30
2022-12-25T07:51:21.138Z,23.15
2022-12-25T07:53:49.575Z,21.48
2022-12-25T07:56:20.360Z,23.50
2022-12-25T07:58:49.581Z,23.58
2022-12-25T08:01:23.154Z,26.33
2022-12-25T08:03:53.772Z,25.67
2022-12-25T08:06:23.687Z,20.65
2022-12-25T08:08:52.128Z,20.50
2022-12-25T08:11:20.446Z,22.65
2022-12-25T08:13:48.821Z,21.27
2022-12-25T08:16:17.198Z,21.92
2022-12-25T08:18:45.765Z,23.05
2022-12-25T08:21:16.129Z,23.80
2022-12-25T08:23:46.761Z,24.63
2022-12-25T08:26:21.194Z,21.63
2022-12-25T08:28:50.285Z,23.60
2022-12-25T08:31:30.657Z,26.83
2022-12-25T08:34:00.425Z,24.83
2022-12-25T08:36:28.807Z,27.58
2022-12-25T08:39:02.622Z,31.88
2022-12-25T08:44:00.421Z,34.28
2022-12-25T08:46:28.912Z,34.65
2022-12-25T08:48:57.830Z,39.55
2022-12-25T08:51:27.541Z,43.53
2022-12-25T08:54:01.235Z,44.40
2022-12-25T08:56:30.530Z,37.55
2022-12-25T08:58:59.052Z,38.70
2022-12-25T09:01:27.567Z,40.00
2022-12-25T09:03:56.120Z,37.17
2022-12-25T09:06:24.652Z,38.83
2022-12-25T09:08:53.125Z,41.20
2022-12-25T09:11:22.729Z,36.90
2022-12-25T09:13:51.367Z,35.63
2022-12-25T09:16:22.783Z,39.97
2022-12-25T09:18:51.858Z,38.47
2022-12-25T09:21:20.979Z,39.58
2022-12-25T09:23:49.607Z,36.47
2022-12-25T09:26:20.803Z,40.53
2022-12-25T09:28:52.247Z,39.00
2022-12-25T09:31:22.759Z,35.33
2022-12-25T09:33:52.247Z,33.42
2022-12-25T09:36:24.171Z,31.60
2022-12-25T09:38:53.604Z,30.08
2022-12-25T09:41:33.389Z,30.23
2022-12-25T09:44:17.937Z,30.70
2022-12-25T09:47:01.030Z,29.48
2022-12-25T09:49:37.287Z,28.77
2022-12-25T09:52:25.389Z,28.70
2022-12-25T09:55:08.013Z,28.40
2022-12-25T09:57:36.535Z,25.23
2022-12-25T10:00:05.300Z,28.92
2022-12-25T10:03:14.672Z,27.55
2022-12-25T10:06:04.171Z,27.52
2022-12-25T10:08:44.485Z,26.58
2022-12-25T10:11:51.368Z,26.67
2022-12-25T10:14:27.375Z,26.17
2022-12-25T10:17:18.384Z,28.20
2022-12-25T10:19:53.917Z,27.02
2022-12-25T10:22:55.520Z,25.70
2022-12-25T10:25:25.618Z,29.60
2022-12-25T10:28:02.085Z,24.88
2022-12-25T10:30:32.316Z,24.25
2022-12-25T10:33:01.641Z,26.92
2022-12-25T10:35:32.412Z,26.38
2022-12-25T10:38:03.849Z,27.15
2022-12-25T10:41:09.227Z,25.38
2022-12-25T10:43:45.071Z,24.73
2022-12-25T10:46:15.727Z,24.52
2022-12-25T10:48:53.123Z,26.48
2022-12-25T10:51:28.711Z,26.35
2022-12-25T10:53:57.128Z,23.67
2022-12-25T10:56:25.605Z,26.95
2022-12-25T10:59:06.245Z,28.25
2022-12-25T11:01:35.290Z,25.75
2022-12-25T11:04:03.893Z,27.98
2022-12-25T11:06:35.364Z,27.33
2022-12-25T11:09:04.486Z,27.92
2022-12-25T11:11:32.973Z,27.30
2022-12-25T11:14:03.384Z,25.55
2022-12-25T11:16:40.905Z,26.85
2022-12-25T11:19:26.656Z,32.13
2022-12-25T11:21:58.177Z,28.40
2022-12-25T11:24:32.215Z,27.30
2022-12-25T11:27:03.684Z,27.23
2022-12-25T11:29:37.799Z,24.85
2022-12-25T11:32:13.290Z,28.60
2022-12-25T11:34:48.129Z,25.23
2022-12-25T11:37:40.610Z,27.02
2022-12-25T11:40:35.556Z,28.70
2022-12-25T11:43:28.164Z,28.17
2022-12-25T11:46:09.367Z,27.08
2022-12-25T11:48:56.963Z,26.88
2022-12-25T11:51:30.447Z,27.75
2022-12-25T11:54:10.064Z,27.40
2022-12-25T11:56:39.205Z,27.40
2022-12-25T11:59:25.075Z,28.52
2022-12-25T12:02:00.223Z,28.67
2022-12-25T12:04:43.187Z,27.33
2022-12-25T12:07:23.009Z,30.13
2022-12-25T12:10:02.917Z,24.92
2022-12-25T12:12:49.014Z,26.88
2022-12-25T12:15:31.668Z,27.67
2022-12-25T12:18:22.723Z,25.15
2022-12-25T12:21:01.972Z,24.88
2022-12-25T12:23:34.244Z,28.70
2022-12-25T12:26:03.878Z,28.50
2022-12-25T12:28:45.609Z,24.65
2022-12-25T12:31:14.980Z,27.23
2022-12-25T12:33:52.470Z,25.15
2022-12-25T12:36:29.210Z,26.48
2022-12-25T12:39:04.016Z,29.63
2022-12-25T12:41:46.546Z,24.98
2022-12-25T12:44:18.244Z,24.60
2022-12-25T12:46:55.791Z,25.27
2022-12-25T12:49:35.582Z,25.80
2022-12-25T12:52:13.909Z,27.20
2022-12-25T12:55:06.581Z,25.35
2022-12-25T12:57:40.497Z,26.70
2022-12-25T13:00:20.934Z,26.40
2022-12-25T13:03:09.019Z,27.02
2022-12-25T13:05:47.047Z,22.48
2022-12-25T13:08:30.411Z,22.73
2022-12-25T13:11:25.069Z,26.25
2022-12-25T13:13:55.970Z,23.38
2022-12-25T13:16:56.840Z,23.80
2022-12-25T13:19:28.797Z,20.10
2022-12-25T13:22:02.726Z,20.90
2022-12-25T13:24:33.588Z,22.85
2022-12-25T13:27:03.535Z,20.65
2022-12-25T13:29:40.004Z,22.90
2022-12-25T13:32:18.646Z,20.77
2022-12-25T13:34:47.838Z,22.05
2022-12-25T13:37:19.693Z,21.98
2022-12-25T13:40:09.353Z,24.75
2022-12-25T13:42:43.192Z,20.75
2022-12-25T13:45:14.262Z,21.30
2022-12-25T13:47:51.398Z,21.48
2022-12-25T13:50:26.727Z,24.40
2022-12-25T13:52:57.550Z,21.38
2022-12-25T13:55:30.890Z,22.85
2022-12-25T13:58:02.711Z,21.17
2022-12-25T14:00:49.802Z,22.92
2022-12-25T14:03:25.047Z,18.95
2022-12-25T14:06:08.108Z,22.63
2022-12-25T14:08:37.617Z,21.13
2022-12-25T14:11:09.016Z,23.02
2022-12-25T14:13:41.616Z,21.27
2022-12-25T14:16:10.775Z,20.45
2022-12-25T14:18:39.270Z,22.08
2022-12-25T14:21:34.266Z,19.50
2022-12-25T14:24:02.726Z,19.30
2022-12-25T14:26:34.203Z,20.08
2022-12-25T14:29:16.929Z,19.98
2022-12-25T14:31:47.595Z,22.60
2022-12-25T14:34:21.908Z,20.85
2022-12-25T14:36:51.994Z,18.58
2022-12-25T14:39:39.225Z,18.38
2022-12-25T14:42:23.047Z,19.13
2022-12-25T14:45:31.209Z,17.95
2022-12-25T14:48:04.019Z,18.15
2022-12-25T14:50:32.472Z,19.50
2022-12-25T14:53:01.690Z,17.92
2022-12-25T14:55:31.719Z,19.17
2022-12-25T14:58:07.205Z,21.27
2022-12-25T15:00:39.051Z,18.20
2022-12-25T15:03:19.627Z,19.65
2022-12-25T15:06:00.014Z,17.33
2022-12-25T15:08:29.604Z,17.80
2022-12-25T15:11:02.253Z,20.33
2022-12-25T15:13:32.805Z,19.95
2022-12-25T15:16:16.843Z,18.60
2022-12-25T15:18:47.977Z,19.13
2022-12-25T15:21:31.676Z,18.80
2022-12-25T15:24:01.320Z,19.02
2022-12-25T15:26:32.474Z,17.00
2022-12-25T15:29:00.958Z,17.42
2022-12-25T15:31:32.233Z,19.42
2022-12-25T15:34:04.799Z,18.48
2022-12-25T15:36:35.111Z,19.40
2022-12-25T15:39:03.528Z,15.27
2022-12-25T15:41:53.604Z,19.85
2022-12-25T15:44:22.510Z,16.17
2022-12-25T15:46:51.140Z,19.23
2022-12-25T15:49:19.968Z,18.10
2022-12-25T15:51:49.050Z,21.95
2022-12-25T15:54:17.441Z,16.52
2022-12-25T15:56:52.334Z,19.17
2022-12-25T15:59:21.923Z,21.05
2022-12-25T16:01:55.749Z,19.92
2022-12-25T16:04:25.930Z,17.20
2022-12-25T16:06:54.749Z,18.55
2022-12-25T16:09:23.525Z,19.17
2022-12-25T16:11:52.450Z,17.13
2022-12-25T16:14:21.125Z,18.25
2022-12-25T16:16:49.425Z,18.50
2022-12-25T16:19:17.659Z,17.90
2022-12-25T16:21:47.451Z,16.58
2022-12-25T16:24:16.143Z,15.38
2022-12-25T16:26:44.768Z,16.77
2022-12-25T16:29:13.266Z,15.48
2022-12-25T16:31:42.501Z,17.42
2022-12-25T16:34:11.535Z,14.73
2022-12-25T16:36:40.168Z,17.98
2022-12-25T16:39:08.770Z,15.57
2022-12-25T16:41:37.109Z,12.45
2022-12-25T16:44:11.024Z,16.00
2022-12-25T16:46:41.670Z,16.63
2022-12-25T16:49:10.204Z,14.35
2022-12-25T16:51:38.799Z,13.63
2022-12-25T16:54:07.372Z,15.43
2022-12-25T16:56:37.603Z,15.75
2022-12-25T16:59:06.112Z,15.25
2022-12-25T17:01:34.595Z,14.38
2022-12-25T17:04:03.112Z,13.07
2022-12-25T17:06:31.574Z,14.40
2022-12-25T17:09:03.208Z,16.90
2022-12-25T17:11:32.727Z,16.08
2022-12-25T17:14:04.487Z,17.20
2022-12-25T17:16:35.851Z,18.08
2022-12-25T17:19:08.964Z,18.60
2022-12-25T17:21:39.178Z,18.40
2022-12-25T17:24:08.304Z,16.63
2022-12-25T17:26:36.997Z,16.75
2022-12-25T17:29:05.570Z,15.82
2022-12-25T17:31:34.251Z,14.50
2022-12-25T17:34:04.595Z,16.67
2022-12-25T17:36:33.766Z,13.70
2022-12-25T17:39:06.248Z,14.50
2022-12-25T17:41:35.049Z,13.85
2022-12-25T17:44:03.881Z,13.35
2022-12-25T17:46:32.871Z,13.02
2022-12-25T17:49:02.313Z,12.90
2022-12-25T17:51:31.947Z,14.23
2022-12-25T17:54:05.833Z,13.10
2022-12-25T17:56:34.739Z,15.63
2022-12-25T17:59:09.024Z,12.18
2022-12-25T18:01:39.787Z,13.82
2022-12-25T18:04:08.365Z,11.73
2022-12-25T18:06:37.921Z,15.32
2022-12-25T18:09:07.488Z,15.30
2022-12-25T18:11:39.053Z,15.55
2022-12-25T18:14:09.731Z,15.73
2022-12-25T18:16:40.858Z,17.95
2022-12-25T18:19:10.733Z,17.38
2022-12-25T18:21:39.359Z,21.15
2022-12-25T18:24:08.963Z,16.90
2022-12-25T18:26:37.765Z,14.18
2022-12-25T18:29:07.840Z,15.45
2022-12-25T18:31:37.528Z,17.38
2022-12-25T18:34:06.015Z,16.40
2022-12-25T18:36:34.576Z,14.20
2022-12-25T18:39:03.011Z,18.33
2022-12-25T18:41:31.571Z,17.88
2022-12-25T18:44:01.226Z,17.02
2022-12-25T18:46:29.659Z,16.60
2022-12-25T18:48:58.272Z,17.88
2022-12-25T18:51:32.885Z,18.00
2022-12-25T18:54:04.985Z,18.30
2022-12-25T18:56:33.751Z,15.95
2022-12-25T18:59:02.210Z,17.92
2022-12-25T19:01:30.631Z,18.58
2022-12-25T19:04:04.401Z,17.48
2022-12-25T19:06:34.393Z,17.08
2022-12-25T19:09:09.619Z,18.05
2022-12-25T19:11:46.176Z,15.77
2022-12-25T19:14:15.689Z,16.80
2022-12-25T19:16:44.343Z,18.05
2022-12-25T19:19:13.603Z,18.20
2022-12-25T19:21:42.851Z,17.27
2022-12-25T19:24:11.247Z,18.48
2022-12-25T19:26:39.700Z,22.00
2022-12-25T19:29:08.060Z,18.77
2022-12-25T19:31:38.035Z,16.88
2022-12-25T19:34:07.761Z,19.80
2022-12-25T19:36:36.313Z,18.02
2022-12-25T19:39:07.148Z,18.45
2022-12-25T19:41:36.005Z,21.05
2022-12-25T19:44:05.231Z,19.95
2022-12-25T19:46:36.771Z,16.10
2022-12-25T19:49:06.115Z,17.50
2022-12-25T19:51:38.670Z,15.65
2022-12-25T19:54:08.136Z,15.35
2022-12-25T19:56:36.645Z,16.98
2022-12-25T19:59:05.249Z,16.80
2022-12-25T20:01:34.334Z,18.35
2022-12-25T20:04:02.885Z,18.98
2022-12-25T20:06:34.046Z,16.85
2022-12-25T20:09:12.338Z,16.90
2022-12-25T20:11:41.126Z,18.05
2022-12-25T20:14:11.699Z,14.60
2022-12-25T20:16:41.146Z,15.60
2022-12-25T20:19:12.176Z,16.25
2022-12-25T20:21:41.118Z,16.27
2022-12-25T20:24:11.868Z,18.75
2022-12-25T20:26:40.651Z,16.55
2022-12-25T20:29:09.124Z,17.95
2022-12-25T20:31:37.701Z,16.48
2022-12-25T20:34:09.585Z,17.23
2022-12-25T20:36:38.561Z,15.93
2022-12-25T20:39:12.950Z,15.77
2022-12-25T20:41:41.415Z,16.88
2022-12-25T20:44:11.061Z,19.20
2022-12-25T20:46:40.011Z,16.15
2022-12-25T20:49:08.641Z,15.10
2022-12-25T20:51:37.301Z,15.43
2022-12-25T20:54:13.607Z,16.50
2022-12-25T20:56:42.070Z,13.93
2022-12-25T20:59:12.804Z,12.65
2022-12-25T21:01:41.310Z,11.80
2022-12-25T21:04:15.891Z,13.05
2022-12-25T21:06:44.803Z,10.38
2022-12-25T21:09:13.306Z,9.88
2022-12-25T21:11:41.620Z,10.55
2022-12-25T21:14:10.401Z,9.68
2022-12-25T21:16:38.805Z,10.90
2022-12-25T21:19:07.349Z,7.97
2022-12-25T21:21:36.970Z,9.48
2022-12-25T21:24:05.625Z,11.23
2022-12-25T21:26:34.096Z,9.02
2022-12-25T21:29:03.670Z,8.45
2022-12-25T21:31:52.328Z,9.43
2022-12-25T21:34:20.654Z,12.02
2022-12-25T21:36:49.604Z,9.85
2022-12-25T21:39:18.382Z,11.18
2022-12-25T21:41:46.872Z,10.07
2022-12-25T21:44:15.224Z,10.32
2022-12-25T21:46:43.877Z,9.90
2022-12-25T21:49:12.967Z,12.38
2022-12-25T21:51:59.520Z,11.57
2022-12-25T21:54:28.339Z,13.50
2022-12-25T21:56:56.910Z,11.88
2022-12-25T21:59:25.285Z,13.25
2022-12-25T22:01:54.681Z,12.65
2022-12-25T22:04:24.579Z,12.60
2022-12-25T22:07:11.383Z,12.25
2022-12-25T22:09:39.991Z,12.18
2022-12-25T22:12:33.547Z,12.93
2022-12-25T22:15:07.199Z,12.43
2022-12-25T22:17:57.594Z,11.73
2022-12-25T22:20:28.133Z,11.65
2022-12-25T22:22:57.094Z,14.52
2022-12-25T22:25:26.200Z,13.35
2022-12-25T22:27:55.210Z,12.77
2022-12-25T22:30:30.062Z,12.73
2022-12-25T22:35:27.113Z,13.43
2022-12-25T22:37:56.042Z,15.25
2022-12-25T22:40:24.644Z,12.95
2022-12-25T22:42:55.827Z,14.48
2022-12-25T22:45:25.101Z,12.55
2022-12-25T22:47:53.586Z,13.63
2022-12-25T22:50:22.097Z,13.85
2022-12-25T22:52:50.577Z,14.27
2022-12-25T22:55:21.117Z,13.57
2022-12-25T22:57:49.925Z,15.10
2022-12-25T23:00:18.409Z,15.32
2022-12-25T23:02:47.175Z,15.80
2022-12-25T23:05:16.131Z,15.43
2022-12-25T23:07:44.749Z,16.27
2022-12-25T23:10:13.142Z,15.45
2022-12-25T23:12:59.688Z,15.75
2022-12-25T23:15:28.985Z,15.93
2022-12-25T23:18:16.938Z,13.88
2022-12-25T23:21:03.533Z,18.73
2022-12-25T23:23:50.090Z,16.42
2022-12-25T23:26:21.775Z,17.13
2022-12-25T23:29:08.306Z,16.63
2022-12-25T23:31:39.234Z,18.88
2022-12-25T23:34:08.668Z,16.52
2022-12-25T23:36:37.504Z,16.10
2022-12-25T23:39:10.189Z,18.50
2022-12-25T23:41:44.005Z,19.02
2022-12-25T23:44:14.368Z,17.05
2022-12-25T23:46:52.551Z,16.10
2022-12-25T23:49:23.524Z,16.13
2022-12-25T23:51:52.322Z,17.45
2022-12-25T23:54:24.292Z,17.33
2022-12-25T23:56:53.569Z,18.30
2022-12-25T23:59:22.086Z,17.75
